createdAt,value
2017-11-09T07:43:45.870Z,8.20
2017-11-09T08:02:26.976Z,8.10
2017-11-09T08:05:05.403Z,8.00
2017-11-09T08:07:41.445Z,7.90
2017-11-09T08:30:14.987Z,8.80
2017-11-09T08:32:51.492Z,8.90
2017-11-09T08:35:19.853Z,8.80
2017-11-09T08:37:48.097Z,8.40
2017-11-09T08:40:16.383Z,8.40
2017-11-09T08:42:44.783Z,8.70
2017-11-09T08:45:13.074Z,8.70
2017-11-09T08:47:41.344Z,8.40
2017-11-09T08:50:09.653Z,8.50
2017-11-09T08:52:38.717Z,9.10
2017-11-09T08:55:07.401Z,9.10
2017-11-09T08:57:35.653Z,9.10
2017-11-09T09:00:03.971Z,9.20
2017-11-09T09:02:32.314Z,9.00
2017-11-09T09:05:00.580Z,8.60
2017-11-09T09:07:28.857Z,8.50
2017-11-09T09:09:57.175Z,8.40
2017-11-09T09:12:25.419Z,8.30
2017-11-09T09:14:53.781Z,8.80
2017-11-09T09:17:22.081Z,8.90
2017-11-09T09:19:50.417Z,8.80
2017-11-09T09:22:18.678Z,8.70
2017-11-09T09:24:48.240Z,8.60
2017-11-09T09:27:26.407Z,8.60
2017-11-09T09:29:55.422Z,8.70
2017-11-09T09:32:24.065Z,8.90
2017-11-09T09:38:16.860Z,8.70
2017-11-09T09:40:47.423Z,8.80
2017-11-09T09:43:15.812Z,9.00
2017-11-09T09:45:44.159Z,9.00
2017-11-09T09:48:12.485Z,9.00
2017-11-09T09:50:40.783Z,8.50
2017-11-09T09:53:09.186Z,8.20
2017-11-09T09:55:37.483Z,8.30
2017-11-09T09:58:05.825Z,8.60
2017-11-09T10:00:34.191Z,8.90
2017-11-09T10:03:02.580Z,8.70
2017-11-09T10:05:30.831Z,8.80
2017-11-09T10:08:00.013Z,9.00
2017-11-09T10:10:28.329Z,9.00
2017-11-09T10:12:56.608Z,8.90
2017-11-09T10:15:24.968Z,8.60
2017-11-09T10:17:53.256Z,8.50
2017-11-09T10:20:21.624Z,8.70
2017-11-09T10:22:50.655Z,8.60
2017-11-09T10:25:18.929Z,8.70
2017-11-09T10:27:47.257Z,8.50
2017-11-09T10:30:15.522Z,8.30
2017-11-09T10:32:43.777Z,8.30
2017-11-09T10:35:16.451Z,8.40
2017-11-09T10:37:45.839Z,8.30
2017-11-09T10:40:14.154Z,8.40
2017-11-09T10:42:42.877Z,8.90
2017-11-09T10:45:11.177Z,8.60
2017-11-09T10:47:39.510Z,8.40
2017-11-09T10:50:07.812Z,8.40
2017-11-09T10:52:36.250Z,8.40
2017-11-09T10:55:05.609Z,8.40
2017-11-09T10:57:33.909Z,8.40
2017-11-09T11:00:02.730Z,8.50
2017-11-09T11:02:38.983Z,8.60
2017-11-09T11:32:23.361Z,9.10
2017-11-09T11:35:08.024Z,8.80
2017-11-09T11:37:37.015Z,8.80
2017-11-09T11:40:07.039Z,9.20
2017-11-09T11:42:36.366Z,9.10
2017-11-09T11:45:06.097Z,8.90
2017-11-09T11:55:35.964Z,9.00
2017-11-09T12:01:09.024Z,9.00
2017-11-09T13:02:57.506Z,9.80
2017-11-09T13:14:38.514Z,9.80
2017-11-09T13:26:09.006Z,10.20
2017-11-09T13:31:45.189Z,9.80
2017-11-09T13:34:13.471Z,9.70
2017-11-09T13:36:42.694Z,9.90
2017-11-09T13:39:11.025Z,10.10
2017-11-09T13:41:39.336Z,9.90
2017-11-09T13:44:08.388Z,9.80
2017-11-09T13:46:36.682Z,9.80
2017-11-09T13:49:05.848Z,9.80
2017-11-09T13:51:34.169Z,10.00
2017-11-09T13:54:03.208Z,9.90
2017-11-09T13:56:32.605Z,9.90
2017-11-09T13:59:01.960Z,9.90
2017-11-09T14:01:30.238Z,9.70
2017-11-09T14:03:58.629Z,9.80
2017-11-09T14:06:27.849Z,9.70
2017-11-09T14:08:56.133Z,9.60
2017-11-09T14:11:25.393Z,9.60
2017-11-09T14:13:54.466Z,9.50
2017-11-09T14:16:22.737Z,9.50
2017-11-09T14:18:51.009Z,9.50
2017-11-09T14:21:19.317Z,9.50
2017-11-09T14:23:47.628Z,9.40
2017-11-09T14:26:15.942Z,9.40
2017-11-09T14:28:45.575Z,9.50
2017-11-09T14:31:14.601Z,9.40
2017-11-09T14:33:43.533Z,9.40
2017-11-09T14:36:11.853Z,9.50
2017-11-09T14:38:40.896Z,9.50
2017-11-09T14:41:09.166Z,9.50
2017-11-09T14:43:37.500Z,9.50
2017-11-09T14:46:06.540Z,9.40
2017-11-09T14:48:37.898Z,9.40
2017-11-09T14:51:08.368Z,9.50
2017-11-09T14:53:37.047Z,9.50
2017-11-09T14:56:05.383Z,9.40
2017-11-09T14:58:33.610Z,9.30
2017-11-09T15:01:01.896Z,9.20
2017-11-09T15:03:30.230Z,9.30
2017-11-09T15:05:58.529Z,9.30
2017-11-09T15:08:27.556Z,9.40
2017-11-09T15:10:55.892Z,9.40
2017-11-09T15:13:24.920Z,9.60
2017-11-09T15:15:55.059Z,9.60
2017-11-09T15:18:23.414Z,9.90
2017-11-09T15:20:51.682Z,9.90
2017-11-09T15:23:20.103Z,9.40
2017-11-09T15:25:48.424Z,9.30
2017-11-09T15:28:17.453Z,9.40
2017-11-09T15:30:45.712Z,9.30
2017-11-09T15:33:14.081Z,9.30
2017-11-09T15:35:48.001Z,9.40
2017-11-09T15:38:17.119Z,9.40
2017-11-09T15:40:45.380Z,9.30
2017-11-09T15:43:13.643Z,9.20
2017-11-09T15:45:42.004Z,9.30
2017-11-09T15:48:11.053Z,9.20
2017-11-09T15:50:39.350Z,9.20
2017-11-09T15:53:07.629Z,9.20
2017-11-09T15:55:35.939Z,9.30
2017-11-09T15:58:04.193Z,9.20
2017-11-09T16:00:32.582Z,9.40
2017-11-09T16:03:02.963Z,9.30
2017-11-09T16:05:34.367Z,9.30
2017-11-09T16:08:07.228Z,9.20
2017-11-09T16:10:37.034Z,9.20
2017-11-09T16:13:08.362Z,9.10
2017-11-09T16:15:37.106Z,9.00
2017-11-09T16:18:09.783Z,9.20
2017-11-09T16:20:40.579Z,9.20
2017-11-09T16:23:08.964Z,9.30
2017-11-09T16:25:37.228Z,9.00
2017-11-09T16:28:05.530Z,9.20
2017-11-09T16:30:33.805Z,9.00
2017-11-09T16:33:02.182Z,9.00
2017-11-09T16:35:31.180Z,9.00
2017-11-09T16:37:59.431Z,9.00
2017-11-09T16:40:28.342Z,9.10
2017-11-09T16:42:57.381Z,9.10
2017-11-09T16:45:25.660Z,9.10
2017-11-09T16:47:54.440Z,9.00
2017-11-09T16:50:22.706Z,9.20
2017-11-09T16:52:51.889Z,9.30
2017-11-09T16:55:20.275Z,9.30
2017-11-09T16:57:48.542Z,9.60
2017-11-09T17:00:16.832Z,9.60
2017-11-09T17:02:46.413Z,9.50
2017-11-09T17:05:14.678Z,9.40
2017-11-09T17:07:42.974Z,9.40
2017-11-09T17:10:11.316Z,9.40
2017-11-09T17:12:39.649Z,9.20
2017-11-09T17:15:11.113Z,9.30
2017-11-09T17:17:39.421Z,9.30
2017-11-09T17:20:08.481Z,9.20
2017-11-09T17:22:36.805Z,9.20
2017-11-09T17:25:05.093Z,9.10
2017-11-09T17:27:34.593Z,9.20
2017-11-09T17:30:03.835Z,9.10
2017-11-09T17:35:13.895Z,8.80
2017-11-09T17:37:42.218Z,8.80
2017-11-09T17:40:11.243Z,8.70
2017-11-09T17:42:42.380Z,8.70
2017-11-09T17:45:10.706Z,8.80
2017-11-09T17:47:41.461Z,8.80
2017-11-09T17:50:11.588Z,8.70
2017-11-09T17:52:45.164Z,8.60
2017-11-09T18:04:06.036Z,8.50
2017-11-09T18:06:35.248Z,8.60
2017-11-09T18:09:04.350Z,8.40
2017-11-09T18:11:32.679Z,8.40
2017-11-09T18:14:00.955Z,8.40
2017-11-09T18:16:29.294Z,8.40
2017-11-09T18:19:07.672Z,8.40
2017-11-09T18:21:38.071Z,8.40
2017-11-09T18:24:07.233Z,8.40
2017-11-09T18:26:35.825Z,8.40
2017-11-09T18:29:04.593Z,8.40
2017-11-09T18:31:34.789Z,8.50
2017-11-09T18:34:14.080Z,8.50
2017-11-09T18:36:47.385Z,8.50
2017-11-09T18:39:22.474Z,8.50
2017-11-09T18:41:50.945Z,8.50
2017-11-09T18:44:20.022Z,8.50
2017-11-09T18:46:48.257Z,8.50
2017-11-09T18:49:16.552Z,8.60
2017-11-09T18:51:48.393Z,8.50
2017-11-09T18:54:16.631Z,8.60
2017-11-09T18:56:45.508Z,8.40
2017-11-09T18:59:18.190Z,8.70
2017-11-09T19:01:48.510Z,8.50
2017-11-09T19:04:20.878Z,8.50
2017-11-09T19:07:02.007Z,8.50
2017-11-09T19:26:44.890Z,8.50
2017-11-09T19:29:14.000Z,8.70
2017-11-09T19:37:52.540Z,8.60
2017-11-09T19:40:21.019Z,8.40
2017-11-09T19:42:50.238Z,8.50
2017-11-09T19:45:20.389Z,8.50
2017-11-09T19:50:35.633Z,8.50
2017-11-09T19:53:29.902Z,8.80
2017-11-09T19:59:34.298Z,8.70
2017-11-09T20:02:48.093Z,9.00
2017-11-09T20:05:29.694Z,8.90
2017-11-09T20:07:59.904Z,8.90
2017-11-09T20:10:29.354Z,9.30
2017-11-09T20:12:57.634Z,9.30
2017-11-09T20:15:26.480Z,9.30
2017-11-09T20:17:55.562Z,9.10
2017-11-09T20:20:24.603Z,9.20
2017-11-09T20:22:52.868Z,9.20
2017-11-09T20:25:21.209Z,9.40
2017-11-09T20:27:53.465Z,9.20
2017-11-09T20:30:21.817Z,9.20
2017-11-09T20:32:54.661Z,9.30
2017-11-09T20:35:23.641Z,9.30
2017-11-09T20:37:52.059Z,9.40
2017-11-09T20:40:20.339Z,9.40
2017-11-09T20:42:48.852Z,9.40
2017-11-09T20:45:17.103Z,9.40
2017-11-09T20:48:08.826Z,9.50
2017-11-09T20:50:38.267Z,9.40
2017-11-09T20:53:06.678Z,9.40
2017-11-09T20:55:34.935Z,8.70
2017-11-09T20:58:04.039Z,9.30
2017-11-09T21:00:33.108Z,9.30
2017-11-09T21:03:02.158Z,9.40
2017-11-09T21:05:30.536Z,9.40
2017-11-09T21:08:00.105Z,8.90
2017-11-09T21:10:32.036Z,8.80
2017-11-09T21:13:01.100Z,8.80
2017-11-09T21:15:29.636Z,8.50
2017-11-09T21:17:58.021Z,8.40
2017-11-09T21:20:27.046Z,8.40
2017-11-09T21:22:55.418Z,8.40
2017-11-09T21:25:23.697Z,8.40
2017-11-09T21:27:51.983Z,8.80
2017-11-09T21:30:20.924Z,8.60
2017-11-09T21:32:54.214Z,8.50
2017-11-09T21:35:22.807Z,8.60
2017-11-09T21:37:51.892Z,8.30
2017-11-09T21:40:20.272Z,8.20
2017-11-09T21:42:48.542Z,8.10
2017-11-09T21:45:16.827Z,8.20
2017-11-09T21:47:45.184Z,8.20
2017-11-09T21:50:13.481Z,8.20
2017-11-09T21:52:41.767Z,8.10
2017-11-09T21:55:10.041Z,8.20
2017-11-09T21:57:39.468Z,8.10
2017-11-09T22:00:13.049Z,8.10
2017-11-09T22:26:25.554Z,8.20
2017-11-09T22:28:53.950Z,8.20
2017-11-09T22:31:23.387Z,8.10
2017-11-09T22:33:52.501Z,8.20
2017-11-09T22:36:23.702Z,8.20
2017-11-09T22:38:53.023Z,8.00
2017-11-09T22:41:23.037Z,8.00
2017-11-09T22:43:53.238Z,8.00
2017-11-09T22:46:28.031Z,8.00
2017-11-09T22:48:57.145Z,8.10
2017-11-09T22:51:26.426Z,8.10
2017-11-09T22:53:55.464Z,8.00
2017-11-09T22:56:24.232Z,7.90
2017-11-09T22:58:53.973Z,8.00
2017-11-09T23:01:24.258Z,7.90
2017-11-09T23:03:53.500Z,7.90
2017-11-09T23:06:22.873Z,8.00
2017-11-09T23:08:52.091Z,8.00
2017-11-09T23:11:21.652Z,7.90
2017-11-09T23:13:51.057Z,7.80
2017-11-09T23:16:20.682Z,7.80
2017-11-09T23:18:50.207Z,7.80
2017-11-09T23:21:20.197Z,8.00
2017-11-09T23:23:49.620Z,7.90
2017-11-09T23:26:18.361Z,7.80
2017-11-09T23:28:47.964Z,7.80
2017-11-09T23:31:16.813Z,7.80
2017-11-09T23:33:46.461Z,7.90
2017-11-09T23:36:16.279Z,8.00
2017-11-09T23:38:44.925Z,8.00
2017-11-09T23:41:15.495Z,8.10
2017-11-09T23:43:44.814Z,8.10
2017-11-09T23:46:13.531Z,8.00
2017-11-09T23:48:42.270Z,8.00
2017-11-09T23:51:11.853Z,8.40
2017-11-09T23:53:41.558Z,8.30
2017-11-09T23:56:12.463Z,8.50
2017-11-09T23:58:41.893Z,8.50
